Overview Statistics Trail Chart Weather Telemetry Raw packets
 

This is the latest recevied weather packets stored in our database for station/object KB1WCR. If no packets are shown the sender has not sent any weather packets the latest 10 day(s).

<< 78 79 80 81 82 83 84 >>
Time Temp. Humidity Pressure Rain* Wind** Luminosity Snow
1787845183 26.67° C 70% 1017.7 hPa 0 mm - 618 W/m² -
1787844879 26.67° C 69% 1017.5 hPa 0 mm - 250 W/m² -
1787844579 26.67° C 70% 1017.6 hPa 0 mm - 732 W/m² -
1787844274 27.22° C 67% 1017.6 hPa 0 mm - 423 W/m² -
1787843972 27.78° C 67% 1017.7 hPa 0 mm - 638 W/m² -
1787843668 27.78° C 64% 1017.8 hPa 0 mm - 774 W/m² -
1787843364 27.22° C 66% 1017.9 hPa 0 mm - 682 W/m² -
1787843060 27.22° C 63% 1017.8 hPa 0 mm - 669 W/m² -
1787842760 27.22° C 63% 1017.9 hPa 0 mm - 533 W/m² -
1787842454 27.78° C 62% 1017.6 hPa 0 mm - 633 W/m² -
1787842150 27.78° C 65% 1017.8 hPa 0 mm - 685 W/m² -
1787841844 27.22° C 64% 1017.9 hPa 0 mm - 649 W/m² -
1787841541 27.22° C 65% 1017.7 hPa 0 mm - 629 W/m² -
1787841239 26.11° C 68% 1017.9 hPa 0 mm - 613 W/m² -
1787840934 26.11° C 69% 1017.8 hPa 0 mm - 362 W/m² -
1787840629 26.11° C 71% 1017.7 hPa 0 mm - 537 W/m² -
1787840325 26.67° C 68% 1017.7 hPa 0 mm - 555 W/m² -
1787840024 26.11° C 71% 1017.7 hPa 0 mm - 598 W/m² -
1787839719 26.11° C 72% 1017.9 hPa 0 mm - 597 W/m² -
1787839414 26.11° C 74% 1017.9 hPa 0 mm - 526 W/m² -
1787839113 26.11° C 72% 1017.8 hPa 0 mm - 556 W/m² -
1787838812 25.56° C 74% 1017.7 hPa 0 mm - 512 W/m² -
1787838507 25° C 77% 1017.8 hPa 0 mm - 484 W/m² -
1787838206 23.89° C 80% 1017.8 hPa 0 mm - 452 W/m² -
1787837905 23.33° C 87% 1018 hPa 0 mm - 419 W/m² -

* Rain latest hour (hover to see other rain measurements)
** Current wind speed in m/s (hover to see current wind gust speed)